createdAt,value
2022-12-03T00:01:41.055Z,100939.38
2022-12-03T00:04:10.841Z,100940.28
2022-12-03T00:06:40.467Z,100941.13
2022-12-03T00:09:10.062Z,100939.41
2022-12-03T00:11:39.594Z,100942.03
2022-12-03T00:14:11.737Z,100941.19
2022-12-03T00:16:42.476Z,100938.56
2022-12-03T00:19:12.124Z,100930.72
2022-12-03T00:21:41.731Z,100937.66
2022-12-03T00:24:11.807Z,100936.81
2022-12-03T00:26:41.428Z,100933.31
2022-12-03T00:29:13.877Z,100930.69
2022-12-03T00:31:47.953Z,100935.91
2022-12-03T00:34:27.249Z,100927.22
2022-12-03T00:36:56.826Z,100929.84
2022-12-03T00:39:26.370Z,100923.72
2022-12-03T00:41:55.934Z,100917.66
2022-12-03T00:44:28.316Z,100918.50
2022-12-03T00:46:57.977Z,100926.38
2022-12-03T00:49:27.580Z,100932.44
2022-12-03T00:51:57.121Z,100928.97
2022-12-03T00:54:31.581Z,100928.97
2022-12-03T00:57:01.892Z,100922.91
2022-12-03T00:59:34.199Z,100928.13
2022-12-03T01:02:03.876Z,100927.25
2022-12-03T01:04:33.921Z,100935.06
2022-12-03T01:07:03.876Z,100935.09
2022-12-03T01:09:33.687Z,100932.50
2022-12-03T01:12:03.275Z,100933.34
2022-12-03T01:14:35.474Z,100934.22
2022-12-03T01:17:05.058Z,100938.59
2022-12-03T01:19:35.210Z,100934.22
2022-12-03T01:22:05.126Z,100929.88
2022-12-03T01:24:34.682Z,100936.81
2022-12-03T01:27:04.285Z,100929.88
2022-12-03T01:29:36.859Z,100935.97
2022-12-03T01:32:19.634Z,100929.00
2022-12-03T01:34:50.150Z,100933.38
2022-12-03T01:37:20.624Z,100940.34
2022-12-03T01:39:50.321Z,100931.63
2022-12-03T01:42:21.758Z,100934.22
2022-12-03T01:44:55.569Z,100933.38
2022-12-03T01:47:28.385Z,100929.00
2022-12-03T01:50:00.134Z,100935.13
2022-12-03T01:52:33.189Z,100930.75
2022-12-03T01:55:04.481Z,100934.22
2022-12-03T01:57:39.371Z,100929.91
2022-12-03T02:00:16.557Z,100934.25
2022-12-03T02:02:46.497Z,100928.16
2022-12-03T02:05:20.589Z,100927.28
2022-12-03T02:07:50.485Z,100927.28
2022-12-03T02:10:22.785Z,100926.41
2022-12-03T02:12:55.627Z,100931.63
2022-12-03T02:15:27.880Z,100929.00
2022-12-03T02:17:58.358Z,100927.25
2022-12-03T02:20:27.918Z,100925.53
2022-12-03T02:23:03.415Z,100920.31
2022-12-03T02:25:36.728Z,100927.25
2022-12-03T02:28:07.899Z,100923.78
2022-12-03T02:30:37.945Z,100925.53
2022-12-03T02:33:07.782Z,100924.69
2022-12-03T02:35:39.708Z,100915.94
2022-12-03T02:38:13.766Z,100908.13
2022-12-03T02:40:47.087Z,100919.44
2022-12-03T02:43:16.524Z,100916.84
2022-12-03T02:45:47.836Z,100909.00
2022-12-03T02:48:19.798Z,100911.63
2022-12-03T02:50:53.297Z,100917.69
2022-12-03T02:53:26.784Z,100915.09
2022-12-03T02:56:02.207Z,100911.63
2022-12-03T02:58:33.019Z,100909.88
2022-12-03T03:01:04.345Z,100908.13
2022-12-03T03:03:35.208Z,100904.66
2022-12-03T03:06:05.389Z,100908.13
2022-12-03T03:08:35.134Z,100904.66
2022-12-03T03:11:07.509Z,100901.16
2022-12-03T03:13:37.976Z,100906.41
2022-12-03T03:16:08.668Z,100898.53
2022-12-03T03:18:38.600Z,100903.75
2022-12-03T03:21:08.669Z,100899.41
2022-12-03T03:23:38.215Z,100890.72
2022-12-03T03:26:12.029Z,100902.88
2022-12-03T03:28:43.302Z,100902.91
2022-12-03T03:31:14.439Z,100895.94
2022-12-03T03:33:45.472Z,100889.81
2022-12-03T03:36:15.365Z,100892.44
2022-12-03T03:38:45.213Z,100897.66
2022-12-03T03:41:18.233Z,100882.84
2022-12-03T03:43:48.614Z,100888.06
2022-12-03T03:46:18.711Z,100894.16
2022-12-03T03:48:48.653Z,100885.47
2022-12-03T03:51:19.475Z,100882.88
2022-12-03T03:53:50.985Z,100884.56
2022-12-03T03:56:24.275Z,100886.31
2022-12-03T03:58:53.816Z,100886.31
2022-12-03T04:01:23.417Z,100880.25
2022-12-03T04:03:53.774Z,100882.88
2022-12-03T04:06:23.692Z,100883.75
2022-12-03T04:08:53.240Z,100885.50
2022-12-03T04:11:37.867Z,100883.75
2022-12-03T04:14:07.182Z,100880.25
2022-12-03T04:16:36.785Z,100882.00
2022-12-03T04:19:06.450Z,100879.38
2022-12-03T04:22:03.177Z,100871.56
2022-12-03T04:24:32.755Z,100868.94
2022-12-03T04:27:17.589Z,100869.81
2022-12-03T04:29:46.911Z,100868.06
2022-12-03T04:32:28.909Z,100881.09
2022-12-03T04:35:11.011Z,100879.38
2022-12-03T04:37:40.613Z,100874.16
2022-12-03T04:40:32.076Z,100878.53
2022-12-03T04:43:04.708Z,100866.34
2022-12-03T04:45:34.348Z,100862.84
2022-12-03T04:48:03.979Z,100876.75
2022-12-03T04:50:33.504Z,100866.31
2022-12-03T04:53:03.072Z,100860.22
2022-12-03T04:55:32.683Z,100858.47
2022-12-03T04:58:04.860Z,100860.25
2022-12-03T05:00:34.400Z,100856.72
2022-12-03T05:03:04.024Z,100852.41
2022-12-03T05:05:33.607Z,100855.88
2022-12-03T05:08:03.205Z,100858.50
2022-12-03T05:10:32.851Z,100844.56
2022-12-03T05:13:05.008Z,100853.28
2022-12-03T05:15:34.554Z,100848.06
2022-12-03T05:18:04.144Z,100850.63
2022-12-03T05:20:52.769Z,100855.00
2022-12-03T05:23:23.023Z,100852.38
2022-12-03T05:25:52.788Z,100849.78
2022-12-03T05:28:25.027Z,100852.41
2022-12-03T05:30:55.072Z,100866.31
2022-12-03T05:33:24.688Z,100863.69
2022-12-03T05:35:54.225Z,100864.59
2022-12-03T05:38:23.774Z,100866.31
2022-12-03T05:40:53.546Z,100853.25
2022-12-03T05:43:23.068Z,100852.38
2022-12-03T05:45:52.697Z,100851.53
2022-12-03T05:48:22.385Z,100854.13
2022-12-03T05:50:51.939Z,100855.88
2022-12-03T05:53:22.276Z,100853.28
2022-12-03T05:55:51.892Z,100853.28
2022-12-03T05:58:21.444Z,100852.38
2022-12-03T06:00:53.576Z,100854.16
2022-12-03T06:03:23.158Z,100866.34
2022-12-03T06:05:52.802Z,100861.13
2022-12-03T06:08:22.367Z,100860.22
2022-12-03T06:10:51.922Z,100855.91
2022-12-03T06:13:21.484Z,100860.22
2022-12-03T06:15:53.699Z,100864.59
2022-12-03T06:18:23.279Z,100853.25
2022-12-03T06:20:52.793Z,100862.81
2022-12-03T06:23:22.340Z,100852.38
2022-12-03T06:25:52.242Z,100861.06
2022-12-03T06:28:21.806Z,100855.84
2022-12-03T06:30:54.519Z,100848.88
2022-12-03T06:33:24.098Z,100856.69
2022-12-03T06:35:53.733Z,100861.88
2022-12-03T06:38:23.299Z,100857.53
2022-12-03T06:40:52.850Z,100858.38
2022-12-03T06:43:22.422Z,100859.22
2022-12-03T06:45:54.576Z,100855.72
2022-12-03T06:48:24.137Z,100854.84
2022-12-03T06:50:53.783Z,100863.50
2022-12-03T06:53:23.316Z,100864.31
2022-12-03T06:55:52.869Z,100859.09
2022-12-03T06:58:22.435Z,100859.88
2022-12-03T07:00:54.751Z,100863.34
2022-12-03T07:03:24.416Z,100865.06
2022-12-03T07:05:54.022Z,100862.44
2022-12-03T07:08:23.640Z,100855.50
2022-12-03T07:10:54.243Z,100864.16
2022-12-03T07:13:24.253Z,100858.06
2022-12-03T07:15:57.194Z,100861.50
2022-12-03T07:18:26.800Z,100859.78
2022-12-03T07:20:56.348Z,100864.09
2022-12-03T07:23:25.972Z,100857.13
2022-12-03T07:25:55.507Z,100849.31
2022-12-03T07:28:25.088Z,100854.50
2022-12-03T07:30:57.275Z,100854.47
2022-12-03T07:33:26.905Z,100858.81
2022-12-03T07:35:56.480Z,100853.59
2022-12-03T07:38:27.884Z,100851.00
2022-12-03T07:40:57.432Z,100850.16
2022-12-03T07:43:27.010Z,100850.16
2022-12-03T07:45:59.316Z,100851.88
2022-12-03T07:48:28.933Z,100852.75
2022-12-03T07:50:58.590Z,100851.91
2022-12-03T07:53:28.149Z,100856.22
2022-12-03T07:55:57.687Z,100858.84
2022-12-03T07:58:27.306Z,100862.31
2022-12-03T08:00:59.668Z,100843.19
2022-12-03T08:03:29.475Z,100844.09
2022-12-03T08:05:59.013Z,100846.72
2022-12-03T08:08:28.636Z,100834.53
2022-12-03T08:10:58.207Z,100859.75
2022-12-03T08:13:27.766Z,100845.88
2022-12-03T08:16:03.861Z,100844.19
2022-12-03T08:18:33.467Z,100843.34
2022-12-03T08:21:03.169Z,100837.28
2022-12-03T08:23:32.746Z,100847.69
2022-12-03T08:26:04.199Z,100851.19
2022-12-03T08:28:34.068Z,100847.72
2022-12-03T08:31:18.586Z,100846.84
2022-12-03T08:33:48.971Z,100855.56
2022-12-03T08:36:25.184Z,100840.84
2022-12-03T08:38:57.643Z,100855.63
2022-12-03T08:41:40.160Z,100842.66
2022-12-03T08:44:25.382Z,100843.56
2022-12-03T08:47:03.835Z,100848.81
2022-12-03T08:49:33.464Z,100842.72
2022-12-03T08:52:04.378Z,100847.13
2022-12-03T08:54:34.072Z,100854.09
2022-12-03T08:57:03.923Z,100848.88
2022-12-03T08:59:34.482Z,100841.03
2022-12-03T09:02:17.499Z,100851.50
2022-12-03T09:04:48.566Z,100849.75
2022-12-03T09:07:18.167Z,100849.75
2022-12-03T09:09:48.248Z,100854.09
2022-12-03T09:12:17.817Z,100849.75
2022-12-03T09:14:47.453Z,100857.56
2022-12-03T09:17:21.580Z,100852.34
2022-12-03T09:19:51.157Z,100848.91
2022-12-03T09:22:20.736Z,100854.13
2022-12-03T09:24:50.379Z,100848.03
2022-12-03T09:27:22.568Z,100840.22
2022-12-03T09:29:52.175Z,100848.06
2022-12-03T09:32:24.356Z,100847.19
2022-12-03T09:34:54.237Z,100843.72
2022-12-03T09:37:24.054Z,100848.03
2022-12-03T09:39:53.635Z,100845.44
2022-12-03T09:42:23.238Z,100841.06
2022-12-03T09:44:53.279Z,100850.66
2022-12-03T09:47:25.969Z,100845.41
2022-12-03T09:49:56.100Z,100844.53
2022-12-03T09:52:27.521Z,100838.41
2022-12-03T09:54:58.083Z,100831.41
2022-12-03T09:57:27.947Z,100831.44
2022-12-03T09:59:58.144Z,100827.94
2022-12-03T10:02:34.277Z,100822.72
2022-12-03T10:05:03.959Z,100829.69
2022-12-03T10:07:33.575Z,100827.91
2022-12-03T10:10:03.273Z,100823.53
2022-12-03T10:12:33.102Z,100820.03
2022-12-03T10:15:03.222Z,100818.28
2022-12-03T10:17:35.399Z,100813.88
2022-12-03T10:20:05.049Z,100805.16
2022-12-03T10:22:37.433Z,100819.09
2022-12-03T10:25:11.804Z,100805.13
2022-12-03T10:27:41.310Z,100806.00
2022-12-03T10:30:19.702Z,100800.72
2022-12-03T10:32:53.847Z,100798.09
2022-12-03T10:35:25.393Z,100794.56
2022-12-03T10:38:03.122Z,100789.31
2022-12-03T10:40:33.973Z,100786.69
2022-12-03T10:43:24.922Z,100782.34
2022-12-03T10:46:13.676Z,100782.38
2022-12-03T10:48:46.259Z,100774.50
2022-12-03T10:51:22.076Z,100769.28
2022-12-03T10:53:52.325Z,100766.63
2022-12-03T10:56:27.447Z,100768.31
2022-12-03T10:58:57.454Z,100760.41
2022-12-03T11:01:28.435Z,100761.22
2022-12-03T11:04:06.130Z,100754.25
2022-12-03T11:06:35.804Z,100754.25
2022-12-03T11:09:09.058Z,100752.47
2022-12-03T11:11:38.878Z,100750.69
2022-12-03T11:14:08.817Z,100755.94
2022-12-03T11:17:23.352Z,100751.63
2022-12-03T11:19:55.512Z,100756.06
2022-12-03T11:22:44.260Z,100744.75
2022-12-03T11:25:58.630Z,100750.88
2022-12-03T11:28:35.964Z,100743.06
2022-12-03T11:31:11.528Z,100748.31
2022-12-03T11:33:44.603Z,100745.69
2022-12-03T11:36:36.389Z,100743.03
2022-12-03T11:39:11.147Z,100738.63
2022-12-03T11:41:40.694Z,100736.91
2022-12-03T11:44:33.032Z,100737.81
2022-12-03T11:47:16.220Z,100725.63
2022-12-03T11:49:50.454Z,100722.19
2022-12-03T11:52:30.379Z,100721.31
2022-12-03T11:55:04.422Z,100720.50
2022-12-03T11:57:38.420Z,100720.47
2022-12-03T12:00:19.709Z,100710.91
2022-12-03T12:02:49.505Z,100706.53
2022-12-03T12:05:33.374Z,100700.41
2022-12-03T12:08:06.057Z,100708.25
2022-12-03T12:10:56.428Z,100702.13
2022-12-03T12:13:30.731Z,100698.63
2022-12-03T12:16:00.886Z,100693.34
2022-12-03T12:18:40.359Z,100686.38
2022-12-03T12:21:40.041Z,100691.63
2022-12-03T12:24:35.925Z,100682.88
2022-12-03T12:27:08.238Z,100689.00
2022-12-03T12:29:38.974Z,100680.28
2022-12-03T12:32:16.711Z,100680.25
2022-12-03T12:34:48.347Z,100672.38
2022-12-03T12:37:23.274Z,100670.69
2022-12-03T12:39:57.191Z,100672.38
2022-12-03T12:42:32.751Z,100663.63
2022-12-03T12:45:15.195Z,100667.09
2022-12-03T12:47:50.403Z,100663.63
2022-12-03T12:50:21.555Z,100658.38
2022-12-03T12:52:54.834Z,100659.22
2022-12-03T12:55:27.509Z,100661.81
2022-12-03T12:57:58.756Z,100664.41
2022-12-03T13:00:28.408Z,100658.28
2022-12-03T13:02:59.520Z,100664.34
2022-12-03T13:05:30.227Z,100655.63
2022-12-03T13:07:59.934Z,100646.94
2022-12-03T13:10:44.113Z,100646.94
2022-12-03T13:13:25.909Z,100641.78
2022-12-03T13:16:07.234Z,100646.19
2022-12-03T13:18:44.214Z,100638.34
2022-12-03T13:21:22.944Z,100636.59
2022-12-03T13:23:54.493Z,100631.44
2022-12-03T13:26:38.358Z,100632.34
2022-12-03T13:29:15.425Z,100644.63
2022-12-03T13:31:51.087Z,100637.69
2022-12-03T13:34:23.757Z,100642.06
2022-12-03T13:36:58.103Z,100633.34
2022-12-03T13:39:35.085Z,100632.47
2022-12-03T13:42:30.116Z,100635.97
2022-12-03T13:44:59.742Z,100630.72
2022-12-03T13:47:29.301Z,100626.44
2022-12-03T13:50:03.553Z,100623.00
2022-12-03T13:52:33.077Z,100619.56
2022-12-03T13:55:06.681Z,100626.50
2022-12-03T13:57:38.822Z,100619.50
2022-12-03T14:00:11.130Z,100620.38
2022-12-03T14:02:42.063Z,100622.13
2022-12-03T14:05:12.720Z,100611.66
2022-12-03T14:07:43.251Z,100610.75
2022-12-03T14:10:16.343Z,100604.66
2022-12-03T14:12:48.447Z,100618.63
2022-12-03T14:15:18.228Z,100614.25
2022-12-03T14:17:47.764Z,100611.66
2022-12-03T14:20:17.688Z,100603.81
2022-12-03T14:22:47.291Z,100612.53
2022-12-03T14:25:18.011Z,100606.41
2022-12-03T14:27:50.153Z,100608.16
2022-12-03T14:30:20.140Z,100609.03
2022-12-03T14:32:50.105Z,100606.41
2022-12-03T14:35:19.676Z,100609.03
2022-12-03T14:37:49.217Z,100613.34
2022-12-03T14:40:21.620Z,100609.00
2022-12-03T14:42:54.371Z,100609.03
2022-12-03T14:45:25.252Z,100602.09
2022-12-03T14:47:54.911Z,100610.81
2022-12-03T14:50:24.616Z,100608.22
2022-12-03T14:52:54.178Z,100616.06
2022-12-03T14:55:23.923Z,100609.97
2022-12-03T14:57:56.043Z,100609.97
2022-12-03T15:00:25.756Z,100614.31
2022-12-03T15:02:55.334Z,100609.13
2022-12-03T15:05:28.441Z,100607.38
2022-12-03T15:07:58.757Z,100610.88
2022-12-03T15:10:28.341Z,100606.56
2022-12-03T15:13:01.000Z,100608.38
2022-12-03T15:15:30.938Z,100598.78
2022-12-03T15:18:00.581Z,100608.41
2022-12-03T15:20:30.951Z,100599.69
2022-12-03T15:23:00.507Z,100612.75
2022-12-03T15:25:30.090Z,100601.41
2022-12-03T15:28:03.457Z,100604.03
2022-12-03T15:30:35.355Z,100604.94
2022-12-03T15:33:05.215Z,100603.19
2022-12-03T15:35:35.043Z,100605.81
2022-12-03T15:38:04.779Z,100612.78
2022-12-03T15:40:34.376Z,100610.19
2022-12-03T15:43:06.964Z,100617.16
2022-12-03T15:45:36.788Z,100612.78
2022-12-03T15:48:07.331Z,100605.84
2022-12-03T15:50:40.131Z,100609.34
2022-12-03T15:53:10.087Z,100605.84
2022-12-03T15:55:39.651Z,100600.63
2022-12-03T15:58:11.816Z,100598.91
2022-12-03T16:00:41.371Z,100605.00
2022-12-03T16:03:10.975Z,100605.91
2022-12-03T16:05:40.559Z,100615.47
2022-12-03T16:08:10.179Z,100605.06
2022-12-03T16:10:39.795Z,100607.69
2022-12-03T16:13:11.943Z,100610.28
2022-12-03T16:15:41.571Z,100608.56
2022-12-03T16:18:11.149Z,100605.06
2022-12-03T16:20:42.108Z,100609.41
2022-12-03T16:23:11.700Z,100609.41
2022-12-03T16:25:41.347Z,100615.50
2022-12-03T16:28:13.729Z,100615.47
2022-12-03T16:30:43.363Z,100616.34
2022-12-03T16:33:12.976Z,100616.34
2022-12-03T16:35:42.544Z,100616.34
2022-12-03T16:38:12.116Z,100609.38
2022-12-03T16:40:41.683Z,100610.22
2022-12-03T16:43:14.060Z,100602.38
2022-12-03T16:46:02.469Z,100601.53
2022-12-03T16:48:32.427Z,100609.38
2022-12-03T16:51:01.986Z,100607.69
2022-12-03T16:53:31.535Z,100605.09
2022-12-03T16:56:02.987Z,100599.88
2022-12-03T16:58:35.736Z,100606.84
2022-12-03T17:01:05.376Z,100603.34
2022-12-03T17:03:35.084Z,100604.25
2022-12-03T17:06:04.895Z,100603.38
2022-12-03T17:08:34.535Z,100596.41
2022-12-03T17:11:04.892Z,100598.16
2022-12-03T17:13:37.123Z,100598.16
2022-12-03T17:16:06.922Z,100598.16
2022-12-03T17:18:36.559Z,100603.38
2022-12-03T17:21:06.662Z,100599.91
2022-12-03T17:23:36.226Z,100602.53
2022-12-03T17:26:05.783Z,100592.94
2022-12-03T17:28:37.927Z,100592.94
2022-12-03T17:31:07.816Z,100586.88
2022-12-03T17:33:37.445Z,100586.91
2022-12-03T17:36:08.062Z,100585.19
2022-12-03T17:38:39.466Z,100588.66
2022-12-03T17:41:09.885Z,100583.47
2022-12-03T17:43:42.259Z,100586.97
2022-12-03T17:46:11.867Z,100579.13
2022-12-03T17:48:42.599Z,100581.75
2022-12-03T17:51:12.204Z,100583.44
2022-12-03T17:53:41.786Z,100583.44
2022-12-03T17:56:11.533Z,100582.59
2022-12-03T17:58:45.026Z,100575.63
2022-12-03T18:01:14.712Z,100565.19
2022-12-03T18:03:44.566Z,100566.94
2022-12-03T18:06:14.269Z,100573.03
2022-12-03T18:08:43.847Z,100568.66
2022-12-03T18:11:13.418Z,100567.84
2022-12-03T18:13:45.704Z,100566.94
2022-12-03T18:16:15.348Z,100564.34
2022-12-03T18:18:45.202Z,100566.94
2022-12-03T18:21:15.038Z,100570.47
2022-12-03T18:23:44.715Z,100563.50
2022-12-03T18:26:14.410Z,100566.97
2022-12-03T18:28:46.715Z,100572.16
2022-12-03T18:31:18.062Z,100565.22
2022-12-03T18:33:47.666Z,100564.34
2022-12-03T18:36:21.620Z,100561.75
2022-12-03T18:38:52.145Z,100554.81
2022-12-03T18:41:22.027Z,100551.34
2022-12-03T18:43:54.229Z,100553.06
2022-12-03T18:46:52.385Z,100542.66
2022-12-03T18:49:13.611Z,100547.88
2022-12-03T18:51:43.168Z,100552.22
2022-12-03T18:54:14.945Z,100553.97
2022-12-03T18:56:44.576Z,100555.72
2022-12-03T18:59:16.755Z,100542.69
2022-12-03T19:01:46.391Z,100542.69
2022-12-03T19:04:16.051Z,100546.16
2022-12-03T19:06:45.603Z,100544.41
2022-12-03T19:09:15.215Z,100546.13
2022-12-03T19:11:44.766Z,100545.25
2022-12-03T19:14:16.950Z,100539.19
2022-12-03T19:16:46.897Z,100535.69
2022-12-03T19:19:16.594Z,100538.31
2022-12-03T19:21:46.135Z,100549.63
2022-12-03T19:24:24.413Z,100545.28
2022-12-03T19:26:55.589Z,100544.41
2022-12-03T19:29:27.925Z,100542.69
2022-12-03T19:31:57.637Z,100540.94
2022-12-03T19:34:27.336Z,100547.03
2022-12-03T19:36:56.941Z,100547.00
2022-12-03T19:39:26.659Z,100547.03
2022-12-03T19:41:56.316Z,100551.34
2022-12-03T19:44:28.456Z,100551.34
2022-12-03T19:46:58.280Z,100550.47
2022-12-03T19:49:28.691Z,100550.47
2022-12-03T19:51:58.308Z,100548.72
2022-12-03T19:54:27.886Z,100551.34
2022-12-03T19:56:57.483Z,100551.34
2022-12-03T19:59:29.648Z,100553.97
2022-12-03T20:01:59.414Z,100551.34
2022-12-03T20:04:29.772Z,100550.47
2022-12-03T20:06:59.783Z,100552.19
2022-12-03T20:09:29.452Z,100550.47
2022-12-03T20:11:59.062Z,100553.91
2022-12-03T20:14:31.253Z,100553.91
2022-12-03T20:17:00.906Z,100555.66
2022-12-03T20:19:30.548Z,100560.00
2022-12-03T20:22:02.802Z,100556.53
2022-12-03T20:24:32.716Z,100558.28
2022-12-03T20:27:02.304Z,100557.41
2022-12-03T20:29:34.446Z,100550.44
2022-12-03T20:32:04.907Z,100550.47
2022-12-03T20:34:35.958Z,100546.13
2022-12-03T20:37:06.024Z,100546.13
2022-12-03T20:39:35.567Z,100551.34
2022-12-03T20:42:05.175Z,100548.72
2022-12-03T20:44:38.119Z,100541.72
2022-12-03T20:47:07.855Z,100533.94
2022-12-03T20:49:39.109Z,100540.91
2022-12-03T20:52:08.781Z,100540.91
2022-12-03T20:54:38.361Z,100533.06
2022-12-03T20:57:07.951Z,100532.22
2022-12-03T20:59:40.103Z,100533.06
2022-12-03T21:02:09.857Z,100532.19
2022-12-03T21:04:39.613Z,100534.78
2022-12-03T21:07:09.230Z,100526.97
2022-12-03T21:09:38.811Z,100526.13
2022-12-03T21:12:08.775Z,100521.78
2022-12-03T21:14:40.940Z,100528.72
2022-12-03T21:17:10.554Z,100532.19
2022-12-03T21:19:40.343Z,100528.69
2022-12-03T21:22:10.278Z,100529.53
2022-12-03T21:24:42.738Z,100526.06
2022-12-03T21:27:15.643Z,100530.38
2022-12-03T21:29:50.592Z,100521.69
2022-12-03T21:32:20.276Z,100524.31
2022-12-03T21:34:49.859Z,100524.31
2022-12-03T21:37:19.658Z,100524.31
2022-12-03T21:39:49.212Z,100526.91
2022-12-03T21:42:36.430Z,100526.00
2022-12-03T21:45:10.028Z,100533.84
2022-12-03T21:47:39.690Z,100526.00
2022-12-03T21:50:11.522Z,100522.50
2022-12-03T21:52:41.310Z,100516.44
2022-12-03T21:55:12.250Z,100523.41
2022-12-03T21:57:41.834Z,100528.63
2022-12-03T22:00:15.574Z,100520.81
2022-12-03T22:02:45.279Z,100524.28
2022-12-03T22:05:15.176Z,100512.97
2022-12-03T22:07:44.812Z,100520.81
2022-12-03T22:10:15.123Z,100526.91
2022-12-03T22:12:44.788Z,100524.31
2022-12-03T22:15:19.347Z,100523.44
2022-12-03T22:17:49.450Z,100520.84
2022-12-03T22:20:19.264Z,100514.75
2022-12-03T22:22:49.000Z,100523.47
2022-12-03T22:25:18.864Z,100522.59
2022-12-03T22:27:48.384Z,100517.34
2022-12-03T22:30:20.696Z,100519.94
2022-12-03T22:32:50.255Z,100508.63
2022-12-03T22:35:19.809Z,100512.94
2022-12-03T22:37:49.413Z,100506.00
2022-12-03T22:40:19.603Z,100505.13
2022-12-03T22:42:51.132Z,100505.97
2022-12-03T22:45:23.431Z,100502.50
2022-12-03T22:47:53.182Z,100498.16
2022-12-03T22:50:22.808Z,100492.06
2022-12-03T22:52:52.470Z,100492.97
2022-12-03T22:55:22.044Z,100493.84
2022-12-03T22:57:51.660Z,100492.06
2022-12-03T23:00:31.724Z,100492.94
2022-12-03T23:03:01.638Z,100492.06
2022-12-03T23:05:34.452Z,100485.13
2022-12-03T23:08:04.067Z,100487.72
2022-12-03T23:10:36.115Z,100481.63
2022-12-03T23:13:05.827Z,100485.06
2022-12-03T23:15:38.062Z,100475.50
2022-12-03T23:18:07.838Z,100472.88
2022-12-03T23:20:37.441Z,100473.72
2022-12-03T23:23:07.083Z,100471.97
2022-12-03T23:25:37.338Z,100466.75
2022-12-03T23:28:07.289Z,100471.94
2022-12-03T23:30:41.050Z,100467.59
2022-12-03T23:33:10.646Z,100468.47
2022-12-03T23:35:41.776Z,100458.88
2022-12-03T23:38:11.388Z,100468.47
2022-12-03T23:40:46.431Z,100482.44
2022-12-03T23:43:18.019Z,100478.09
2022-12-03T23:45:50.194Z,100480.72
2022-12-03T23:48:20.004Z,100485.94
2022-12-03T23:50:49.561Z,100479.81
2022-12-03T23:53:19.110Z,100473.78
2022-12-03T23:55:48.687Z,100465.09
2022-12-03T23:58:18.269Z,100468.56
